sensor_id;sensor_type;location;lat;lon;timestamp;pressure;altitude;pressure_sealevel;temperature;humidity
44481;BME280;30184;42.018;23.670;2022-07-23T00:00:58;91870.34;;;15.78;59.38
44481;BME280;30184;42.018;23.670;2022-07-23T00:03:27;91824.22;;;15.49;59.09
44481;BME280;30184;42.018;23.670;2022-07-23T00:05:56;91950.25;;;16.49;59.25
44481;BME280;30184;42.018;23.670;2022-07-23T00:08:25;91805.38;;;14.83;59.35
44481;BME280;30184;42.018;23.670;2022-07-23T00:10:54;91687.81;;;14.47;58.59
44481;BME280;30184;42.018;23.670;2022-07-23T00:13:23;91688.34;;;14.73;58.09
44481;BME280;30184;42.018;23.670;2022-07-23T00:15:52;91876.91;;;15.80;58.08
44481;BME280;30184;42.018;23.670;2022-07-23T00:18:23;92027.53;;;16.26;59.01
44481;BME280;30184;42.018;23.670;2022-07-23T00:20:52;91933.94;;;16.00;59.83
44481;BME280;30184;42.018;23.670;2022-07-23T00:23:21;92038.88;;;16.73;59.95
44481;BME280;30184;42.018;23.670;2022-07-23T00:25:52;91764.34;;;15.14;60.28
44481;BME280;30184;42.018;23.670;2022-07-23T00:28:24;91736.72;;;14.01;60.57
44481;BME280;30184;42.018;23.670;2022-07-23T00:30:54;91899.41;;;15.84;60.88
44481;BME280;30184;42.018;23.670;2022-07-23T00:33:24;91759.34;;;14.11;60.73
44481;BME280;30184;42.018;23.670;2022-07-23T00:35:53;91607.66;;;12.86;60.68
44481;BME280;30184;42.018;23.670;2022-07-23T00:38:23;91681.25;;;14.04;60.73
44481;BME280;30184;42.018;23.670;2022-07-23T00:40:52;91935.88;;;15.72;60.98
44481;BME280;30184;42.018;23.670;2022-07-23T00:43:21;91582.88;;;13.37;60.82
44481;BME280;30184;42.018;23.670;2022-07-23T00:45:51;91894.38;;;14.93;60.58
44481;BME280;30184;42.018;23.670;2022-07-23T00:48:20;91805.81;;;14.42;60.62
44481;BME280;30184;42.018;23.670;2022-07-23T00:50:51;91551.09;;;13.34;60.95
44481;BME280;30184;42.018;23.670;2022-07-23T00:53:20;91870.44;;;15.47;60.81
44481;BME280;30184;42.018;23.670;2022-07-23T00:55:50;91582.75;;;12.75;60.93
44481;BME280;30184;42.018;23.670;2022-07-23T00:58:19;91610.47;;;12.61;60.91
44481;BME280;30184;42.018;23.670;2022-07-23T01:00:48;91601.06;;;12.75;60.23
44481;BME280;30184;42.018;23.670;2022-07-23T01:03:18;91771.47;;;14.10;60.56
44481;BME280;30184;42.018;23.670;2022-07-23T01:05:47;91701.72;;;14.09;61.09
44481;BME280;30184;42.018;23.670;2022-07-23T01:08:17;91509.91;;;12.88;61.17
44481;BME280;30184;42.018;23.670;2022-07-23T01:10:48;91934.25;;;14.60;61.08
44481;BME280;30184;42.018;23.670;2022-07-23T01:13:17;92147.13;;;15.98;61.24
44481;BME280;30184;42.018;23.670;2022-07-23T01:15:47;91864.22;;;15.06;61.34
44481;BME280;30184;42.018;23.670;2022-07-23T01:18:16;91751.91;;;13.59;61.50
44481;BME280;30184;42.018;23.670;2022-07-23T01:20:46;91734.13;;;13.98;61.56
44481;BME280;30184;42.018;23.670;2022-07-23T01:23:17;91554.81;;;12.62;61.59
44481;BME280;30184;42.018;23.670;2022-07-23T01:25:53;91858.25;;;14.59;61.51
44481;BME280;30184;42.018;23.670;2022-07-23T01:28:24;91810.75;;;14.34;62.30
44481;BME280;30184;42.018;23.670;2022-07-23T01:30:54;91760.34;;;13.95;62.00
44481;BME280;30184;42.018;23.670;2022-07-23T01:33:24;91813.50;;;14.12;62.10
44481;BME280;30184;42.018;23.670;2022-07-23T01:35:53;91676.38;;;13.47;62.24
44481;BME280;30184;42.018;23.670;2022-07-23T01:38:26;91764.38;;;13.47;62.25
44481;BME280;30184;42.018;23.670;2022-07-23T01:40:55;91988.09;;;15.56;62.67
44481;BME280;30184;42.018;23.670;2022-07-23T01:43:29;91976.47;;;15.43;62.82
44481;BME280;30184;42.018;23.670;2022-07-23T01:45:59;91902.16;;;14.08;62.92
44481;BME280;30184;42.018;23.670;2022-07-23T01:48:34;91767.31;;;13.74;62.84
44481;BME280;30184;42.018;23.670;2022-07-23T01:51:38;91981.63;;;15.41;62.79
44481;BME280;30184;42.018;23.670;2022-07-23T01:54:34;91778.88;;;13.78;63.03
44481;BME280;30184;42.018;23.670;2022-07-23T01:57:06;91978.25;;;15.37;63.01
44481;BME280;30184;42.018;23.670;2022-07-23T01:59:36;92091.00;;;14.97;62.91
44481;BME280;30184;42.018;23.670;2022-07-23T02:02:08;91759.13;;;13.74;63.06
44481;BME280;30184;42.018;23.670;2022-07-23T02:04:37;91873.91;;;14.02;63.14
44481;BME280;30184;42.018;23.670;2022-07-23T02:07:07;91962.38;;;15.22;62.98
44481;BME280;30184;42.018;23.670;2022-07-23T02:09:37;91851.94;;;13.49;63.13
44481;BME280;30184;42.018;23.670;2022-07-23T02:12:06;91921.06;;;14.59;63.07
44481;BME280;30184;42.018;23.670;2022-07-23T02:14:35;91364.81;;;10.88;62.91
44481;BME280;30184;42.018;23.670;2022-07-23T02:17:07;91875.16;;;14.44;63.08
44481;BME280;30184;42.018;23.670;2022-07-23T02:19:37;91644.88;;;12.67;63.02
44481;BME280;30184;42.018;23.670;2022-07-23T02:22:06;91801.41;;;13.57;63.48
44481;BME280;30184;42.018;23.670;2022-07-23T02:24:38;91477.66;;;11.40;62.70
44481;BME280;30184;42.018;23.670;2022-07-23T02:27:08;91488.31;;;11.47;62.96
44481;BME280;30184;42.018;23.670;2022-07-23T02:29:37;91492.88;;;11.12;63.08
44481;BME280;30184;42.018;23.670;2022-07-23T02:32:10;91553.81;;;11.62;63.59
44481;BME280;30184;42.018;23.670;2022-07-23T02:34:40;91897.22;;;14.15;63.39
44481;BME280;30184;42.018;23.670;2022-07-23T02:37:10;91538.59;;;12.02;63.51
44481;BME280;30184;42.018;23.670;2022-07-23T02:39:41;91675.13;;;12.22;63.53
44481;BME280;30184;42.018;23.670;2022-07-23T02:42:11;91966.75;;;14.11;63.57
44481;BME280;30184;42.018;23.670;2022-07-23T02:44:41;91758.50;;;13.14;63.54
44481;BME280;30184;42.018;23.670;2022-07-23T02:47:10;91590.56;;;11.53;63.91
44481;BME280;30184;42.018;23.670;2022-07-23T02:49:39;91868.19;;;14.09;63.80
44481;BME280;30184;42.018;23.670;2022-07-23T02:52:08;91909.22;;;13.83;63.65
44481;BME280;30184;42.018;23.670;2022-07-23T02:54:38;91607.31;;;11.65;63.47
44481;BME280;30184;42.018;23.670;2022-07-23T02:57:10;91977.50;;;13.93;63.79
44481;BME280;30184;42.018;23.670;2022-07-23T02:59:39;92122.41;;;14.58;63.84
44481;BME280;30184;42.018;23.670;2022-07-23T03:02:08;92124.59;;;14.85;64.33
44481;BME280;30184;42.018;23.670;2022-07-23T03:04:38;91964.16;;;13.48;64.03
44481;BME280;30184;42.018;23.670;2022-07-23T03:07:11;91512.47;;;10.65;64.03
44481;BME280;30184;42.018;23.670;2022-07-23T03:09:40;91607.34;;;12.03;63.90
44481;BME280;30184;42.018;23.670;2022-07-23T03:12:11;91796.47;;;12.45;63.86
44481;BME280;30184;42.018;23.670;2022-07-23T03:14:41;92029.81;;;14.73;64.28
44481;BME280;30184;42.018;23.670;2022-07-23T03:17:10;91928.22;;;13.15;63.91
44481;BME280;30184;42.018;23.670;2022-07-23T03:19:39;91931.91;;;13.33;64.16
44481;BME280;30184;42.018;23.670;2022-07-23T03:22:09;91953.59;;;13.37;64.33
44481;BME280;30184;42.018;23.670;2022-07-23T03:24:38;92063.28;;;13.92;64.23
44481;BME280;30184;42.018;23.670;2022-07-23T03:27:30;92040.91;;;14.56;64.44
44481;BME280;30184;42.018;23.670;2022-07-23T03:30:00;92034.66;;;14.56;64.20
44481;BME280;30184;42.018;23.670;2022-07-23T03:32:29;91939.13;;;13.74;64.03
44481;BME280;30184;42.018;23.670;2022-07-23T03:34:59;91785.19;;;11.92;63.62
44481;BME280;30184;42.018;23.670;2022-07-23T03:37:31;91891.88;;;12.92;63.59
44481;BME280;30184;42.018;23.670;2022-07-23T03:40:00;91905.22;;;13.75;63.89
44481;BME280;30184;42.018;23.670;2022-07-23T03:42:31;92035.66;;;14.62;63.82
44481;BME280;30184;42.018;23.670;2022-07-23T03:45:00;92019.19;;;14.53;64.16
44481;BME280;30184;42.018;23.670;2022-07-23T03:47:29;91760.94;;;12.23;63.60
44481;BME280;30184;42.018;23.670;2022-07-23T03:49:58;91877.16;;;12.90;63.75
44481;BME280;30184;42.018;23.670;2022-07-23T03:52:28;91931.78;;;13.97;64.08
44481;BME280;30184;42.018;23.670;2022-07-23T03:54:57;92012.56;;;14.41;63.86
44481;BME280;30184;42.018;23.670;2022-07-23T03:57:26;91816.13;;;13.00;63.60
44481;BME280;30184;42.018;23.670;2022-07-23T03:59:56;91961.16;;;14.27;63.42
44481;BME280;30184;42.018;23.670;2022-07-23T04:02:26;92039.84;;;14.76;63.13
44481;BME280;30184;42.018;23.670;2022-07-23T04:04:55;91831.50;;;13.19;63.16
44481;BME280;30184;42.018;23.670;2022-07-23T04:07:24;91732.72;;;12.81;62.98
44481;BME280;30184;42.018;23.670;2022-07-23T04:09:54;91933.13;;;13.79;62.95
44481;BME280;30184;42.018;23.670;2022-07-23T04:12:25;92034.94;;;14.92;62.51
44481;BME280;30184;42.018;23.670;2022-07-23T04:14:56;91877.25;;;13.37;63.02
44481;BME280;30184;42.018;23.670;2022-07-23T04:17:27;92039.09;;;14.97;62.78
44481;BME280;30184;42.018;23.670;2022-07-23T04:19:57;92039.41;;;14.99;62.13
44481;BME280;30184;42.018;23.670;2022-07-23T04:22:32;91834.91;;;13.58;61.96
44481;BME280;30184;42.018;23.670;2022-07-23T04:25:02;91716.66;;;12.36;61.85
44481;BME280;30184;42.018;23.670;2022-07-23T04:27:31;91999.34;;;13.93;62.21
44481;BME280;30184;42.018;23.670;2022-07-23T04:30:03;91711.88;;;12.14;62.24
44481;BME280;30184;42.018;23.670;2022-07-23T04:32:32;91663.22;;;13.23;60.24
44481;BME280;30184;42.018;23.670;2022-07-23T04:35:04;91810.06;;;15.23;58.01
44481;BME280;30184;42.018;23.670;2022-07-23T04:37:34;91912.38;;;16.38;55.72
44481;BME280;30184;42.018;23.670;2022-07-23T04:40:04;91556.00;;;14.65;53.92
44481;BME280;30184;42.018;23.670;2022-07-23T04:42:33;92026.47;;;18.50;52.72
44481;BME280;30184;42.018;23.670;2022-07-23T04:45:05;91816.09;;;17.15;51.43
44481;BME280;30184;42.018;23.670;2022-07-23T04:47:38;91772.66;;;17.46;50.16
44481;BME280;30184;42.018;23.670;2022-07-23T04:50:07;91855.09;;;18.62;50.00
44481;BME280;30184;42.018;23.670;2022-07-23T04:52:39;91625.94;;;17.03;48.90
44481;BME280;30184;42.018;23.670;2022-07-23T04:55:08;92017.22;;;20.33;48.13
44481;BME280;30184;42.018;23.670;2022-07-23T04:57:38;91566.72;;;17.50;46.96
44481;BME280;30184;42.018;23.670;2022-07-23T05:00:10;91931.69;;;19.28;46.44
44481;BME280;30184;42.018;23.670;2022-07-23T05:02:40;91795.53;;;19.38;45.98
44481;BME280;30184;42.018;23.670;2022-07-23T05:05:09;91816.09;;;19.78;45.59
44481;BME280;30184;42.018;23.670;2022-07-23T05:07:41;91927.41;;;20.06;44.37
44481;BME280;30184;42.018;23.670;2022-07-23T05:10:10;91926.56;;;21.01;43.84
44481;BME280;30184;42.018;23.670;2022-07-23T05:12:39;91914.03;;;20.80;42.72
44481;BME280;30184;42.018;23.670;2022-07-23T05:15:10;92121.09;;;22.24;41.86
44481;BME280;30184;42.018;23.670;2022-07-23T05:17:39;91726.84;;;19.64;43.23
44481;BME280;30184;42.018;23.670;2022-07-23T05:20:13;91848.50;;;21.95;42.81
44481;BME280;30184;42.018;23.670;2022-07-23T05:22:42;91641.47;;;20.73;42.75
44481;BME280;30184;42.018;23.670;2022-07-23T05:25:12;91894.75;;;22.43;42.33
44481;BME280;30184;42.018;23.670;2022-07-23T05:27:41;91750.44;;;21.79;40.42
44481;BME280;30184;42.018;23.670;2022-07-23T05:30:12;91538.09;;;21.11;40.03
44481;BME280;30184;42.018;23.670;2022-07-23T05:32:44;91907.31;;;23.48;39.16
44481;BME280;30184;42.018;23.670;2022-07-23T05:35:16;91974.34;;;24.41;39.39
44481;BME280;30184;42.018;23.670;2022-07-23T05:38:03;91922.97;;;23.56;39.06
44481;BME280;30184;42.018;23.670;2022-07-23T05:40:32;92008.13;;;24.39;39.10
44481;BME280;30184;42.018;23.670;2022-07-23T05:43:01;91844.09;;;22.79;38.97
44481;BME280;30184;42.018;23.670;2022-07-23T05:45:32;91741.19;;;22.81;39.22
44481;BME280;30184;42.018;23.670;2022-07-23T05:48:01;91812.31;;;22.58;38.92
44481;BME280;30184;42.018;23.670;2022-07-23T05:50:39;91771.34;;;22.67;39.79
44481;BME280;30184;42.018;23.670;2022-07-23T05:53:21;91633.81;;;21.42;41.46
44481;BME280;30184;42.018;23.670;2022-07-23T05:55:59;91975.63;;;24.06;40.38
44481;BME280;30184;42.018;23.670;2022-07-23T05:58:30;91975.09;;;23.91;39.98
44481;BME280;30184;42.018;23.670;2022-07-23T06:01:00;91890.41;;;23.18;40.78
44481;BME280;30184;42.018;23.670;2022-07-23T06:03:36;92078.16;;;23.78;40.18
44481;BME280;30184;42.018;23.670;2022-07-23T06:06:05;91936.22;;;23.08;39.65
44481;BME280;30184;42.018;23.670;2022-07-23T06:08:35;91918.53;;;22.83;40.40
44481;BME280;30184;42.018;23.670;2022-07-23T06:11:07;91772.31;;;21.83;40.58
44481;BME280;30184;42.018;23.670;2022-07-23T06:13:37;91732.81;;;21.66;41.27
44481;BME280;30184;42.018;23.670;2022-07-23T06:16:08;91983.38;;;23.47;41.31
44481;BME280;30184;42.018;23.670;2022-07-23T06:18:37;91655.31;;;20.84;40.33
44481;BME280;30184;42.018;23.670;2022-07-23T06:21:07;91699.13;;;21.13;40.00
44481;BME280;30184;42.018;23.670;2022-07-23T06:23:58;91787.34;;;22.30;39.50
44481;BME280;30184;42.018;23.670;2022-07-23T06:26:27;91661.50;;;21.16;40.73
44481;BME280;30184;42.018;23.670;2022-07-23T06:28:56;91671.03;;;21.15;40.39
44481;BME280;30184;42.018;23.670;2022-07-23T06:31:27;91750.69;;;22.41;40.72
44481;BME280;30184;42.018;23.670;2022-07-23T06:33:57;91883.25;;;22.61;40.65
44481;BME280;30184;42.018;23.670;2022-07-23T06:36:26;91886.19;;;23.56;38.64
44481;BME280;30184;42.018;23.670;2022-07-23T06:38:55;91682.25;;;22.08;38.88
44481;BME280;30184;42.018;23.670;2022-07-23T06:41:24;91780.88;;;22.55;38.77
44481;BME280;30184;42.018;23.670;2022-07-23T06:43:55;91696.06;;;22.08;40.16
44481;BME280;30184;42.018;23.670;2022-07-23T06:46:27;91690.41;;;21.74;38.88
44481;BME280;30184;42.018;23.670;2022-07-23T06:48:56;92065.66;;;24.28;38.30
44481;BME280;30184;42.018;23.670;2022-07-23T06:51:27;91744.16;;;22.71;37.89
44481;BME280;30184;42.018;23.670;2022-07-23T06:53:57;91766.88;;;23.15;38.62
44481;BME280;30184;42.018;23.670;2022-07-23T06:56:26;91882.38;;;24.03;38.08
44481;BME280;30184;42.018;23.670;2022-07-23T06:58:55;91838.06;;;23.81;37.86
44481;BME280;30184;42.018;23.670;2022-07-23T07:01:28;91622.47;;;22.16;38.13
44481;BME280;30184;42.018;23.670;2022-07-23T07:03:57;91864.47;;;24.21;38.74
44481;BME280;30184;42.018;23.670;2022-07-23T07:06:26;91715.50;;;23.08;38.83
44481;BME280;30184;42.018;23.670;2022-07-23T07:08:57;91910.16;;;24.78;37.56
44481;BME280;30184;42.018;23.670;2022-07-23T07:11:29;91996.47;;;24.69;37.17
44481;BME280;30184;42.018;23.670;2022-07-23T07:13:59;91701.44;;;23.06;36.80
44481;BME280;30184;42.018;23.670;2022-07-23T07:16:37;91918.81;;;25.15;36.77
44481;BME280;30184;42.018;23.670;2022-07-23T07:19:06;91844.84;;;24.71;36.80
44481;BME280;30184;42.018;23.670;2022-07-23T07:22:01;91593.56;;;22.39;35.80
44481;BME280;30184;42.018;23.670;2022-07-23T07:24:32;91526.22;;;22.09;37.51
44481;BME280;30184;42.018;23.670;2022-07-23T07:27:09;91595.75;;;23.02;37.40
44481;BME280;30184;42.018;23.670;2022-07-23T07:29:39;91917.22;;;25.72;37.41
44481;BME280;30184;42.018;23.670;2022-07-23T07:32:22;91540.75;;;22.54;37.10
44481;BME280;30184;42.018;23.670;2022-07-23T07:35:25;91525.84;;;22.96;37.99
44481;BME280;30184;42.018;23.670;2022-07-23T07:37:58;91509.75;;;23.52;38.47
44481;BME280;30184;42.018;23.670;2022-07-23T07:40:34;91632.75;;;23.79;37.92
44481;BME280;30184;42.018;23.670;2022-07-23T07:43:10;91453.34;;;23.03;38.06
44481;BME280;30184;42.018;23.670;2022-07-23T07:45:45;91541.34;;;23.73;36.24
44481;BME280;30184;42.018;23.670;2022-07-23T07:56:36;91583.03;;;24.33;36.01
44481;BME280;30184;42.018;23.670;2022-07-23T07:59:30;91507.88;;;24.01;35.35
44481;BME280;30184;42.018;23.670;2022-07-23T08:06:11;91672.84;;;25.74;35.63
44481;BME280;30184;42.018;23.670;2022-07-23T08:08:40;91747.97;;;26.12;35.34
44481;BME280;30184;42.018;23.670;2022-07-23T08:11:09;91637.63;;;26.01;36.43
44481;BME280;30184;42.018;23.670;2022-07-23T08:13:38;91597.78;;;25.50;35.73
44481;BME280;30184;42.018;23.670;2022-07-23T08:16:08;91666.97;;;26.40;36.32
44481;BME280;30184;42.018;23.670;2022-07-23T08:18:37;91632.72;;;26.45;35.03
44481;BME280;30184;42.018;23.670;2022-07-23T08:21:11;91587.44;;;26.44;32.87
44481;BME280;30184;42.018;23.670;2022-07-23T08:23:40;91615.50;;;26.78;32.60
44481;BME280;30184;42.018;23.670;2022-07-23T08:26:09;91830.22;;;28.61;33.16
44481;BME280;30184;42.018;23.670;2022-07-23T08:28:38;91637.59;;;26.89;33.29
44481;BME280;30184;42.018;23.670;2022-07-23T08:31:07;91767.31;;;27.94;30.55
44481;BME280;30184;42.018;23.670;2022-07-23T08:33:38;91825.63;;;29.10;31.08
44481;BME280;30184;42.018;23.670;2022-07-23T08:36:08;91599.75;;;27.26;32.45
44481;BME280;30184;42.018;23.670;2022-07-23T08:38:38;91490.34;;;26.86;30.08
44481;BME280;30184;42.018;23.670;2022-07-23T08:41:08;91820.41;;;29.41;29.89
44481;BME280;30184;42.018;23.670;2022-07-23T08:43:37;91786.56;;;28.97;29.96
44481;BME280;30184;42.018;23.670;2022-07-23T08:46:06;91621.41;;;27.85;29.56
44481;BME280;30184;42.018;23.670;2022-07-23T08:48:35;91669.28;;;28.84;30.72
44481;BME280;30184;42.018;23.670;2022-07-23T08:51:06;91710.38;;;28.97;29.60
44481;BME280;30184;42.018;23.670;2022-07-23T08:53:36;91646.56;;;28.67;27.67
44481;BME280;30184;42.018;23.670;2022-07-23T08:56:08;91817.00;;;30.18;27.73
44481;BME280;30184;42.018;23.670;2022-07-23T08:58:37;91915.25;;;30.27;27.48
44481;BME280;30184;42.018;23.670;2022-07-23T09:01:07;91585.34;;;28.89;27.61
44481;BME280;30184;42.018;23.670;2022-07-23T09:03:37;91848.75;;;30.49;26.79
44481;BME280;30184;42.018;23.670;2022-07-23T09:06:07;91713.28;;;29.95;27.31
44481;BME280;30184;42.018;23.670;2022-07-23T09:08:38;91436.38;;;28.17;26.35
44481;BME280;30184;42.018;23.670;2022-07-23T09:11:10;91426.63;;;28.31;25.84
44481;BME280;30184;42.018;23.670;2022-07-23T09:13:41;91605.88;;;29.20;27.22
44481;BME280;30184;42.018;23.670;2022-07-23T09:16:14;91609.03;;;29.38;26.55
44481;BME280;30184;42.018;23.670;2022-07-23T09:18:46;91780.06;;;30.91;25.68
44481;BME280;30184;42.018;23.670;2022-07-23T09:21:19;91630.91;;;29.47;27.64
44481;BME280;30184;42.018;23.670;2022-07-23T09:23:54;91568.69;;;29.54;28.27
44481;BME280;30184;42.018;23.670;2022-07-23T09:26:28;91516.91;;;29.32;26.58
44481;BME280;30184;42.018;23.670;2022-07-23T09:29:06;91568.28;;;29.86;25.38
44481;BME280;30184;42.018;23.670;2022-07-23T09:31:45;91583.44;;;29.33;25.63
44481;BME280;30184;42.018;23.670;2022-07-23T09:34:17;91474.19;;;29.52;27.67
44481;BME280;30184;42.018;23.670;2022-07-23T09:36:47;91749.22;;;31.58;25.15
44481;BME280;30184;42.018;23.670;2022-07-23T09:39:25;91451.78;;;29.45;25.11
44481;BME280;30184;42.018;23.670;2022-07-23T09:41:56;91412.31;;;28.84;24.39
44481;BME280;30184;42.018;23.670;2022-07-23T09:44:26;91726.03;;;31.57;24.08
44481;BME280;30184;42.018;23.670;2022-07-23T09:46:58;91735.00;;;31.56;23.62
44481;BME280;30184;42.018;23.670;2022-07-23T09:49:28;91742.31;;;31.51;26.33
44481;BME280;30184;42.018;23.670;2022-07-23T09:51:59;91715.94;;;31.39;24.96
44481;BME280;30184;42.018;23.670;2022-07-23T09:54:32;91742.53;;;31.68;25.80
44481;BME280;30184;42.018;23.670;2022-07-23T09:57:06;91671.78;;;31.24;24.59
44481;BME280;30184;42.018;23.670;2022-07-23T09:59:42;91786.47;;;31.88;23.70
44481;BME280;30184;42.018;23.670;2022-07-23T10:02:12;91461.81;;;29.84;23.16
44481;BME280;30184;42.018;23.670;2022-07-23T10:05:06;91748.13;;;31.99;22.61
44481;BME280;30184;42.018;23.670;2022-07-23T10:07:59;91701.94;;;31.69;23.40
44481;BME280;30184;42.018;23.670;2022-07-23T10:10:50;91650.50;;;31.67;23.59
44481;BME280;30184;42.018;23.670;2022-07-23T10:13:42;91548.25;;;30.92;21.50
44481;BME280;30184;42.018;23.670;2022-07-23T10:16:25;91640.38;;;31.86;21.93
44481;BME280;30184;42.018;23.670;2022-07-23T10:18:54;91637.75;;;31.96;20.76
44481;BME280;30184;42.018;23.670;2022-07-23T10:21:33;91574.19;;;31.76;21.04
44481;BME280;30184;42.018;23.670;2022-07-23T10:24:16;91720.22;;;32.86;21.38
44481;BME280;30184;42.018;23.670;2022-07-23T10:26:55;91533.84;;;31.26;20.77
44481;BME280;30184;42.018;23.670;2022-07-23T10:29:40;91575.50;;;31.44;21.76
44481;BME280;30184;42.018;23.670;2022-07-23T10:32:19;91525.34;;;31.71;19.70
44481;BME280;30184;42.018;23.670;2022-07-23T10:34:55;91501.63;;;31.65;19.73
44481;BME280;30184;42.018;23.670;2022-07-23T10:37:32;91705.00;;;32.97;19.60
44481;BME280;30184;42.018;23.670;2022-07-23T10:40:12;91607.38;;;32.17;20.49
44481;BME280;30184;42.018;23.670;2022-07-23T10:42:43;91491.16;;;31.65;20.69
44481;BME280;30184;42.018;23.670;2022-07-23T10:45:26;91550.28;;;32.07;20.94
44481;BME280;30184;42.018;23.670;2022-07-23T10:47:56;91612.88;;;31.70;20.59
44481;BME280;30184;42.018;23.670;2022-07-23T10:50:40;91532.75;;;31.13;20.74
44481;BME280;30184;42.018;23.670;2022-07-23T10:53:12;91701.44;;;32.96;20.96
44481;BME280;30184;42.018;23.670;2022-07-23T10:55:47;91705.75;;;32.97;20.49
44481;BME280;30184;42.018;23.670;2022-07-23T10:58:41;91640.31;;;32.17;21.26
44481;BME280;30184;42.018;23.670;2022-07-23T11:01:33;91699.53;;;33.07;20.52
44481;BME280;30184;42.018;23.670;2022-07-23T11:04:04;91717.66;;;32.73;20.52
44481;BME280;30184;42.018;23.670;2022-07-23T11:07:06;91690.09;;;33.12;21.31
44481;BME280;30184;42.018;23.670;2022-07-23T11:09:41;91688.88;;;33.30;18.82
44481;BME280;30184;42.018;23.670;2022-07-23T11:12:32;91680.25;;;33.36;18.24
44481;BME280;30184;42.018;23.670;2022-07-23T11:15:08;91638.69;;;33.19;18.96
44481;BME280;30184;42.018;23.670;2022-07-23T11:17:57;91672.94;;;33.57;18.99
44481;BME280;30184;42.018;23.670;2022-07-23T11:20:30;91656.41;;;33.04;18.65
44481;BME280;30184;42.018;23.670;2022-07-23T11:23:42;91689.41;;;33.61;19.89
44481;BME280;30184;42.018;23.670;2022-07-23T11:31:20;91584.31;;;32.99;20.04
44481;BME280;30184;42.018;23.670;2022-07-23T11:34:25;91492.56;;;32.29;19.97
44481;BME280;30184;42.018;23.670;2022-07-23T11:37:00;91528.41;;;32.78;20.47
44481;BME280;30184;42.018;23.670;2022-07-23T11:39:33;91535.00;;;32.98;20.21
44481;BME280;30184;42.018;23.670;2022-07-23T11:45:43;91649.63;;;34.06;18.84
44481;BME280;30184;42.018;23.670;2022-07-23T11:51:25;91385.38;;;31.43;18.01
44481;BME280;30184;42.018;23.670;2022-07-23T11:54:05;91355.53;;;30.67;17.94
44481;BME280;30184;42.018;23.670;2022-07-23T11:57:09;91458.88;;;31.41;18.20
44481;BME280;30184;42.018;23.670;2022-07-23T11:59:39;91364.97;;;31.02;18.22
44481;BME280;30184;42.018;23.670;2022-07-23T12:02:15;91458.66;;;31.47;18.03
44481;BME280;30184;42.018;23.670;2022-07-23T12:05:11;91513.78;;;32.15;17.62
44481;BME280;30184;42.018;23.670;2022-07-23T12:07:43;91621.97;;;32.71;19.57
44481;BME280;30184;42.018;23.670;2022-07-23T12:10:14;91643.41;;;33.16;18.25
44481;BME280;30184;42.018;23.670;2022-07-23T12:12:45;91408.53;;;31.51;18.52
44481;BME280;30184;42.018;23.670;2022-07-23T12:15:19;91485.13;;;31.76;18.12
44481;BME280;30184;42.018;23.670;2022-07-23T12:17:50;91440.72;;;31.90;19.20
44481;BME280;30184;42.018;23.670;2022-07-23T12:20:21;91436.94;;;31.55;17.80
44481;BME280;30184;42.018;23.670;2022-07-23T12:22:56;91615.25;;;33.24;18.37
44481;BME280;30184;42.018;23.670;2022-07-23T12:25:28;91429.94;;;31.31;18.45
44481;BME280;30184;42.018;23.670;2022-07-23T12:28:08;91342.31;;;31.15;17.74
44481;BME280;30184;42.018;23.670;2022-07-23T12:30:47;91466.97;;;32.75;18.64
44481;BME280;30184;42.018;23.670;2022-07-23T12:33:22;91384.53;;;32.30;18.42
44481;BME280;30184;42.018;23.670;2022-07-23T12:35:54;91365.13;;;31.52;17.86
44481;BME280;30184;42.018;23.670;2022-07-23T12:38:27;91446.00;;;32.18;18.39
44481;BME280;30184;42.018;23.670;2022-07-23T12:40:57;91488.53;;;33.22;18.04
44481;BME280;30184;42.018;23.670;2022-07-23T12:43:36;91478.16;;;33.07;18.84
44481;BME280;30184;42.018;23.670;2022-07-23T12:46:09;91282.19;;;31.74;18.51
44481;BME280;30184;42.018;23.670;2022-07-23T12:48:39;91481.69;;;33.08;18.67
44481;BME280;30184;42.018;23.670;2022-07-23T12:51:14;91345.72;;;31.86;18.66
44481;BME280;30184;42.018;23.670;2022-07-23T12:53:46;91311.97;;;31.29;18.73
44481;BME280;30184;42.018;23.670;2022-07-23T12:56:18;91627.41;;;33.93;18.57
44481;BME280;30184;42.018;23.670;2022-07-23T12:58:49;91493.28;;;32.62;18.60
44481;BME280;30184;42.018;23.670;2022-07-23T13:01:24;91406.38;;;31.74;19.21
44481;BME280;30184;42.018;23.670;2022-07-23T13:03:59;91383.50;;;31.85;19.14
44481;BME280;30184;42.018;23.670;2022-07-23T13:06:30;91409.06;;;31.97;19.21
44481;BME280;30184;42.018;23.670;2022-07-23T13:09:03;91624.34;;;33.57;18.70
44481;BME280;30184;42.018;23.670;2022-07-23T13:11:34;91486.75;;;32.59;19.10
44481;BME280;30184;42.018;23.670;2022-07-23T13:14:03;91475.19;;;32.23;18.58
44481;BME280;30184;42.018;23.670;2022-07-23T13:16:33;91305.63;;;31.29;20.41
44481;BME280;30184;42.018;23.670;2022-07-23T13:19:02;91360.72;;;31.34;19.52
44481;BME280;30184;42.018;23.670;2022-07-23T13:21:32;91415.59;;;32.00;18.99
44481;BME280;30184;42.018;23.670;2022-07-23T13:24:03;91409.72;;;31.80;19.48
44481;BME280;30184;42.018;23.670;2022-07-23T13:26:33;91685.47;;;33.07;19.14
44481;BME280;30184;42.018;23.670;2022-07-23T13:29:02;91256.34;;;31.18;19.32
44481;BME280;30184;42.018;23.670;2022-07-23T13:31:35;91570.91;;;32.82;18.79
44481;BME280;30184;42.018;23.670;2022-07-23T13:34:05;91613.38;;;33.68;18.74
44481;BME280;30184;42.018;23.670;2022-07-23T13:36:35;91409.06;;;31.65;18.92
44481;BME280;30184;42.018;23.670;2022-07-23T13:39:06;91635.72;;;33.66;18.31
44481;BME280;30184;42.018;23.670;2022-07-23T13:41:35;91428.19;;;31.91;18.55
44481;BME280;30184;42.018;23.670;2022-07-23T13:44:05;91476.59;;;31.99;18.39